Terminal Aerodrome Forecast
Issued by NWS

Home | Current Version | Previous Version | Graphics & Text | Print | Product List | Glossary On
Versions: 1 2 3 4 5 6 7 8 9 10 11 12 13 14 15 16 17 18 19 20 21 22 23 24 25 26 27 28
000
FTUS45 KGGW 281100 RRA
TAFGDV
TAF
KGDV 281147Z 2812/2912 VRB06KT 1/4SM FG OVC001
      TEMPO 2812/2814 5SM BR SCT005
     FM281400 VRB04KT P6SM SCT100
     FM281800 31009KT P6SM VCTS BKN060CB
     FM290000 01012KT P6SM VCSH BKN070
      AMD LTD TO CLD VIS AND WIND=

USA.gov is the U.S. government's official web portal to all federal, state and local government web resources and services.